Time;durP1;ratioP1;P1;durP2;ratioP2;P2;SDS_P1;SDS_P2;PMS_P1;PMS_P2;Temp;Humidity;BMP_temperature;BMP_pressure;BME280_temperature;BME280_humidity;BME280_pressure;Samples;Min_cycle;Max_cycle;Signal;HPM_P1;HPM_P2
2023/11/22 00:02:12;;;;;;;6.68;4.35;;;;;;;;;;6296205;28;20740;-70
2023/11/22 00:05:14;;;;;;;7.97;4.28;;;;;;;;;;6267018;28;20077;-70
2023/11/22 00:08:17;;;;;;;6.55;4.13;;;;;;;;;;6293545;28;20044;-70
2023/11/22 00:11:19;;;;;;;6.13;4.15;;;;;;;;;;6291846;28;20058;-70
2023/11/22 00:14:21;;;;;;;7.35;4.90;;;;;;;;;;6307015;28;20128;-69
2023/11/22 00:17:24;;;;;;;7.13;4.50;;;;;;;;;;6312235;28;20067;-70
2023/11/22 00:20:27;;;;;;;8.00;5.28;;;;;;;;;;6307413;28;20052;-70
2023/11/22 00:23:30;;;;;;;8.75;4.47;;;;;;;;;;6307990;28;20052;-70
2023/11/22 00:26:32;;;;;;;6.50;4.22;;;;;;;;;;6309510;28;20056;-70
2023/11/22 00:29:34;;;;;;;6.57;4.93;;;;;;;;;;6257653;28;20052;-70
2023/11/22 00:32:36;;;;;;;6.63;4.05;;;;;;;;;;6291961;28;20084;-70
2023/11/22 00:35:38;;;;;;;7.82;5.80;;;;;;;;;;6310040;28;20090;-70
2023/11/22 00:38:41;;;;;;;6.80;4.40;;;;;;;;;;6310027;28;20614;-70
2023/11/22 00:41:44;;;;;;;7.03;4.43;;;;;;;;;;6292512;28;20052;-70
2023/11/22 00:44:47;;;;;;;5.53;2.75;;;;;;;;;;6308365;28;20097;-70
2023/11/22 00:47:50;;;;;;;6.15;4.80;;;;;;;;;;6288140;28;20597;-70
2023/11/22 00:50:52;;;;;;;6.75;4.35;;;;;;;;;;6263651;28;20055;-70
2023/11/22 00:53:54;;;;;;;5.68;4.25;;;;;;;;;;6311032;28;20135;-70
2023/11/22 00:56:57;;;;;;;6.65;4.57;;;;;;;;;;6311498;28;20071;-70
2023/11/22 00:59:59;;;;;;;11.00;3.72;;;;;;;;;;6300760;28;20673;-70
2023/11/22 01:03:04;;;;;;;8.13;4.50;;;;;;;;;;6307164;28;20055;-70
2023/11/22 01:06:07;;;;;;;8.13;4.53;;;;;;;;;;6308913;28;20059;-70
2023/11/22 01:09:09;;;;;;;6.57;4.40;;;;;;;;;;6292775;28;20060;-69
2023/11/22 01:12:11;;;;;;;6.45;4.15;;;;;;;;;;6311321;28;20051;-70
2023/11/22 01:15:14;;;;;;;4.72;3.50;;;;;;;;;;6279314;28;20062;-70
2023/11/22 01:18:16;;;;;;;5.50;3.63;;;;;;;;;;6297617;28;20063;-70
2023/11/22 01:21:19;;;;;;;5.65;4.15;;;;;;;;;;6291318;28;20059;-70
2023/11/22 01:24:21;;;;;;;4.78;4.18;;;;;;;;;;6286207;28;20054;-70
2023/11/22 01:27:24;;;;;;;4.88;3.22;;;;;;;;;;6296404;28;20060;-70
2023/11/22 01:30:28;;;;;;;5.90;3.67;;;;;;;;;;6264180;28;20071;-70
2023/11/22 01:33:32;;;;;;;7.32;3.88;;;;;;;;;;6308776;28;20048;-70
2023/11/22 01:36:34;;;;;;;6.20;3.83;;;;;;;;;;6267155;28;20060;-70
2023/11/22 01:39:40;;;;;;;7.65;5.25;;;;;;;;;;6306922;28;20105;-70
2023/11/22 01:42:42;;;;;;;5.57;3.80;;;;;;;;;;6308533;28;20538;-70
2023/11/22 01:45:45;;;;;;;7.82;4.45;;;;;;;;;;6305317;28;20079;-70
2023/11/22 01:48:47;;;;;;;5.65;3.67;;;;;;;;;;6294293;28;20048;-70
2023/11/22 01:51:49;;;;;;;5.95;3.78;;;;;;;;;;6307812;28;20173;-70
2023/11/22 01:54:51;;;;;;;7.55;4.43;;;;;;;;;;6304860;28;20048;-70
2023/11/22 01:57:53;;;;;;;6.00;3.55;;;;;;;;;;6310675;28;20058;-70
2023/11/22 02:00:55;;;;;;;7.15;3.10;;;;;;;;;;6289472;28;20056;-70
2023/11/22 02:03:57;;;;;;;5.10;2.67;;;;;;;;;;6292020;28;20044;-70
2023/11/22 02:07:00;;;;;;;5.78;3.00;;;;;;;;;;6289393;28;20387;-70
2023/11/22 02:10:02;;;;;;;6.85;3.17;;;;;;;;;;6283382;28;20143;-69
2023/11/22 02:13:07;;;;;;;7.47;4.10;;;;;;;;;;6268705;28;20051;-72
2023/11/22 02:16:09;;;;;;;5.18;2.90;;;;;;;;;;6308048;28;20068;-70
2023/11/22 02:19:16;;;;;;;5.45;3.95;;;;;;;;;;6262189;28;20066;-70
2023/11/22 02:22:18;;;;;;;6.47;3.55;;;;;;;;;;6260874;28;20140;-69
2023/11/22 02:25:20;;;;;;;5.45;3.65;;;;;;;;;;6275502;28;20137;-69
2023/11/22 02:28:22;;;;;;;10.35;3.15;;;;;;;;;;6306403;28;20055;-70
2023/11/22 02:31:27;;;;;;;5.00;3.55;;;;;;;;;;6314644;28;20535;-70
2023/11/22 02:34:29;;;;;;;6.45;3.08;;;;;;;;;;6308978;28;20056;-71
2023/11/22 02:37:31;;;;;;;6.75;4.28;;;;;;;;;;6305668;28;20063;-69
2023/11/22 02:40:34;;;;;;;8.95;4.13;;;;;;;;;;6311304;28;20134;-69
2023/11/22 02:43:35;;;;;;;16.15;6.38;;;;;;;;;;6308713;28;20051;-70
2023/11/22 02:46:39;;;;;;;20.92;6.78;;;;;;;;;;6298792;28;20126;-70
2023/11/22 02:49:41;;;;;;;14.80;5.32;;;;;;;;;;6313463;28;20741;-69
2023/11/22 02:52:43;;;;;;;10.57;5.22;;;;;;;;;;6301344;28;20087;-70
2023/11/22 02:55:45;;;;;;;11.75;5.50;;;;;;;;;;6311376;28;20125;-69
2023/11/22 02:58:47;;;;;;;12.50;6.65;;;;;;;;;;6313374;28;20063;-70
2023/11/22 03:01:51;;;;;;;12.50;6.82;;;;;;;;;;6314271;28;20109;-70
2023/11/22 03:04:53;;;;;;;17.05;9.05;;;;;;;;;;6289979;28;20036;-70
2023/11/22 03:07:55;;;;;;;16.42;9.55;;;;;;;;;;6288300;28;20059;-70
2023/11/22 03:10:57;;;;;;;14.95;9.00;;;;;;;;;;6311119;28;20091;-70
2023/11/22 03:13:59;;;;;;;13.20;9.95;;;;;;;;;;6310919;28;20786;-69
2023/11/22 03:17:01;;;;;;;14.65;9.52;;;;;;;;;;6307016;28;20051;-70
2023/11/22 03:20:08;;;;;;;23.85;13.07;;;;;;;;;;6312754;28;20130;-69
2023/11/22 03:23:11;;;;;;;23.05;13.10;;;;;;;;;;6289208;28;20063;-69
2023/11/22 03:26:14;;;;;;;23.77;13.57;;;;;;;;;;6250636;28;20568;-70
2023/11/22 03:29:18;;;;;;;17.40;10.88;;;;;;;;;;6313217;28;20055;-70
2023/11/22 03:32:20;;;;;;;13.20;9.40;;;;;;;;;;6295127;28;20063;-69
2023/11/22 03:35:22;;;;;;;11.90;6.70;;;;;;;;;;6308944;28;20048;-70
2023/11/22 03:38:24;;;;;;;11.82;6.28;;;;;;;;;;6310248;28;20040;-69
2023/11/22 03:41:27;;;;;;;12.55;6.78;;;;;;;;;;6312503;28;20442;-69
2023/11/22 03:44:29;;;;;;;12.93;6.72;;;;;;;;;;6308004;28;20649;-70
2023/11/22 03:47:37;;;;;;;10.38;6.28;;;;;;;;;;6302655;28;20053;-71
2023/11/22 03:50:40;;;;;;;10.77;7.70;;;;;;;;;;6307135;28;20082;-70
2023/11/22 03:53:42;;;;;;;10.52;6.60;;;;;;;;;;6306255;28;20458;-70
2023/11/22 03:56:44;;;;;;;11.18;5.75;;;;;;;;;;6275236;28;20056;-69
2023/11/22 03:59:46;;;;;;;7.97;5.45;;;;;;;;;;6312625;28;20583;-70
2023/11/22 04:02:48;;;;;;;13.48;6.15;;;;;;;;;;6305442;28;20526;-70
2023/11/22 04:05:51;;;;;;;8.15;5.70;;;;;;;;;;6313010;28;20044;-70
2023/11/22 04:08:53;;;;;;;10.30;5.47;;;;;;;;;;6310456;28;20173;-70
2023/11/22 04:11:55;;;;;;;7.68;5.50;;;;;;;;;;6312580;28;20110;-70
2023/11/22 04:14:57;;;;;;;11.00;5.65;;;;;;;;;;6252690;28;20051;-69
2023/11/22 04:17:59;;;;;;;15.70;10.98;;;;;;;;;;6308191;28;20166;-69
2023/11/22 04:21:04;;;;;;;10.68;6.78;;;;;;;;;;6307355;28;20059;-70
2023/11/22 04:24:07;;;;;;;11.00;7.85;;;;;;;;;;6312863;28;20047;-70
2023/11/22 04:27:09;;;;;;;8.43;5.90;;;;;;;;;;6310511;28;20047;-70
2023/11/22 04:30:14;;;;;;;8.82;5.35;;;;;;;;;;6270309;28;20449;-70
2023/11/22 04:33:16;;;;;;;8.82;5.47;;;;;;;;;;6309566;28;20047;-70
2023/11/22 04:36:19;;;;;;;12.32;7.13;;;;;;;;;;6297510;28;20056;-70
2023/11/22 04:39:23;;;;;;;15.98;9.00;;;;;;;;;;6307569;28;20052;-70
2023/11/22 04:42:26;;;;;;;18.50;9.65;;;;;;;;;;6311584;28;20068;-71
2023/11/22 04:45:28;;;;;;;18.45;11.25;;;;;;;;;;6236700;28;20040;-70
2023/11/22 04:48:30;;;;;;;12.60;8.77;;;;;;;;;;6267048;28;20354;-70
2023/11/22 04:51:33;;;;;;;21.20;11.60;;;;;;;;;;6268520;28;20088;-70
2023/11/22 04:54:35;;;;;;;22.90;15.43;;;;;;;;;;6189168;28;20085;-70
2023/11/22 04:57:37;;;;;;;29.17;14.05;;;;;;;;;;6310852;28;20040;-70
2023/11/22 05:00:39;;;;;;;26.20;14.88;;;;;;;;;;6254214;28;20386;-70
2023/11/22 05:03:41;;;;;;;31.77;17.70;;;;;;;;;;6290377;28;20051;-71
2023/11/22 05:06:43;;;;;;;29.40;16.67;;;;;;;;;;6310053;28;20089;-70
2023/11/22 05:09:45;;;;;;;28.17;14.93;;;;;;;;;;6288428;28;20052;-70
2023/11/22 05:12:47;;;;;;;27.55;15.90;;;;;;;;;;6307746;28;20139;-70
2023/11/22 05:15:50;;;;;;;26.58;15.68;;;;;;;;;;6305976;28;20048;-71
2023/11/22 05:18:52;;;;;;;51.45;29.90;;;;;;;;;;6303901;28;20185;-71
2023/11/22 05:21:54;;;;;;;25.38;14.75;;;;;;;;;;6310957;28;20116;-70
2023/11/22 05:24:56;;;;;;;35.05;19.35;;;;;;;;;;6307672;28;20063;-71
2023/11/22 05:27:59;;;;;;;26.00;14.88;;;;;;;;;;6307281;28;20063;-70
2023/11/22 05:31:01;;;;;;;21.73;12.93;;;;;;;;;;6310204;28;20048;-70
2023/11/22 05:34:03;;;;;;;21.08;13.73;;;;;;;;;;6305990;28;20105;-70
2023/11/22 05:37:05;;;;;;;40.58;22.20;;;;;;;;;;6305330;28;20055;-70
2023/11/22 05:40:09;;;;;;;27.35;17.45;;;;;;;;;;6309792;28;20059;-71
2023/11/22 05:43:11;;;;;;;26.67;17.05;;;;;;;;;;6310524;28;20052;-70
2023/11/22 05:46:14;;;;;;;29.27;17.70;;;;;;;;;;6307608;28;20080;-70
2023/11/22 05:49:16;;;;;;;27.90;16.92;;;;;;;;;;6307143;28;20067;-70
2023/11/22 05:52:18;;;;;;;30.88;17.75;;;;;;;;;;6314892;28;20077;-71
2023/11/22 05:55:20;;;;;;;25.27;17.15;;;;;;;;;;6305441;28;20059;-71
2023/11/22 05:58:22;;;;;;;22.13;15.32;;;;;;;;;;6309728;28;20060;-70
2023/11/22 06:01:26;;;;;;;22.58;15.90;;;;;;;;;;6239271;28;20136;-70
2023/11/22 06:04:28;;;;;;;17.85;13.05;;;;;;;;;;6271647;28;20040;-66
2023/11/22 06:07:30;;;;;;;23.15;16.08;;;;;;;;;;6307375;28;20454;-66
2023/11/22 06:10:32;;;;;;;24.80;15.23;;;;;;;;;;6295610;28;20054;-66
2023/11/22 06:13:34;;;;;;;32.75;18.48;;;;;;;;;;6309152;28;20069;-67
2023/11/22 06:16:36;;;;;;;25.50;16.83;;;;;;;;;;6307499;28;20538;-68
2023/11/22 06:19:38;;;;;;;22.05;14.05;;;;;;;;;;6313078;28;20131;-82
2023/11/22 06:22:42;;;;;;;19.58;13.80;;;;;;;;;;6315359;28;20431;-82
2023/11/22 06:25:45;;;;;;;19.38;11.82;;;;;;;;;;6322047;28;20051;-80
2023/11/22 06:28:49;;;;;;;15.55;11.15;;;;;;;;;;6275055;28;20122;-68
2023/11/22 06:31:51;;;;;;;18.30;11.98;;;;;;;;;;6311015;28;20052;-70
2023/11/22 06:34:53;;;;;;;16.08;10.45;;;;;;;;;;6293934;28;20048;-72
2023/11/22 06:37:55;;;;;;;15.30;9.88;;;;;;;;;;6309922;28;20077;-71
2023/11/22 06:40:57;;;;;;;17.70;11.52;;;;;;;;;;6298110;28;20060;-70
2023/11/22 06:43:59;;;;;;;26.75;13.02;;;;;;;;;;6314821;28;20780;-70
2023/11/22 06:47:03;;;;;;;17.23;11.75;;;;;;;;;;6304819;28;20409;-71
2023/11/22 06:50:09;;;;;;;24.00;11.50;;;;;;;;;;6307818;28;20049;-71
2023/11/22 06:53:11;;;;;;;17.85;11.05;;;;;;;;;;6309395;28;20048;-71
2023/11/22 06:56:14;;;;;;;15.95;8.15;;;;;;;;;;6305675;28;20192;-71
2023/11/22 06:59:17;;;;;;;14.80;8.95;;;;;;;;;;6285855;28;20044;-71
2023/11/22 07:02:19;;;;;;;12.93;10.18;;;;;;;;;;6224382;28;20084;-71
2023/11/22 07:05:21;;;;;;;14.35;8.60;;;;;;;;;;6296006;28;20048;-71
2023/11/22 07:08:25;;;;;;;29.88;14.95;;;;;;;;;;6290663;28;20153;-71
2023/11/22 07:11:30;;;;;;;29.90;17.27;;;;;;;;;;6305314;28;20809;-71
2023/11/22 07:14:32;;;;;;;29.95;16.17;;;;;;;;;;6269373;28;20055;-71
2023/11/22 07:17:35;;;;;;;32.65;17.13;;;;;;;;;;6311953;28;20328;-71
2023/11/22 07:20:39;;;;;;;29.33;19.23;;;;;;;;;;6311159;28;20794;-71
2023/11/22 07:23:41;;;;;;;19.45;14.30;;;;;;;;;;6279900;28;20074;-72
2023/11/22 07:26:43;;;;;;;23.48;16.48;;;;;;;;;;6279816;28;20040;-72
2023/11/22 07:29:46;;;;;;;29.02;18.77;;;;;;;;;;6313190;28;20559;-71
2023/11/22 07:32:54;;;;;;;24.13;18.27;;;;;;;;;;6289060;28;20159;-72
2023/11/22 07:35:56;;;;;;;22.85;15.48;;;;;;;;;;6312569;28;20434;-72
2023/11/22 07:38:59;;;;;;;22.23;14.85;;;;;;;;;;6307252;28;20151;-72
2023/11/22 07:42:07;;;;;;;32.08;17.90;;;;;;;;;;6309497;28;20052;-72
2023/11/22 07:45:11;;;;;;;27.73;18.58;;;;;;;;;;6308362;28;20040;-71
2023/11/22 07:48:13;;;;;;;27.48;17.65;;;;;;;;;;6278384;28;20056;-72
2023/11/22 07:51:16;;;;;;;30.80;19.75;;;;;;;;;;6290444;28;20048;-72
2023/11/22 07:54:22;;;;;;;25.70;18.38;;;;;;;;;;6262351;28;20123;-74
2023/11/22 07:57:24;;;;;;;23.55;15.88;;;;;;;;;;6285479;28;20060;-73
2023/11/22 08:00:29;;;;;;;26.20;17.27;;;;;;;;;;6295199;28;20058;-68
2023/11/22 08:03:32;;;;;;;26.10;17.83;;;;;;;;;;6297027;28;20136;-69
2023/11/22 08:06:34;;;;;;;25.13;17.20;;;;;;;;;;6268162;28;20135;-69
2023/11/22 08:09:36;;;;;;;22.83;15.45;;;;;;;;;;6307435;28;20059;-69
2023/11/22 08:12:44;;;;;;;31.65;21.65;;;;;;;;;;6307609;28;20086;-78
2023/11/22 08:15:47;;;;;;;32.03;21.20;;;;;;;;;;6304775;28;20036;-67
2023/11/22 08:18:49;;;;;;;26.17;18.77;;;;;;;;;;6307132;28;20880;-68
2023/11/22 08:21:51;;;;;;;28.65;19.88;;;;;;;;;;6305115;28;20063;-68
2023/11/22 08:24:53;;;;;;;31.25;19.17;;;;;;;;;;6268670;28;20051;-68
2023/11/22 08:27:55;;;;;;;64.25;44.00;;;;;;;;;;6258628;28;20051;-72
2023/11/22 08:30:57;;;;;;;43.92;31.10;;;;;;;;;;6310536;28;20060;-69
2023/11/22 08:33:59;;;;;;;32.35;21.83;;;;;;;;;;6278570;28;20484;-72
2023/11/22 08:37:02;;;;;;;22.60;14.15;;;;;;;;;;6203971;28;20446;-72
2023/11/22 08:40:06;;;;;;;22.42;14.27;;;;;;;;;;6270616;28;20653;-72
2023/11/22 08:43:08;;;;;;;28.20;17.08;;;;;;;;;;6303414;28;20522;-72
2023/11/22 08:46:10;;;;;;;25.83;18.00;;;;;;;;;;6289308;28;20808;-72
2023/11/22 08:49:16;;;;;;;26.77;16.70;;;;;;;;;;6287216;28;20054;-72
2023/11/22 08:52:17;;;;;;;25.48;17.73;;;;;;;;;;6281618;28;20048;-67
2023/11/22 08:55:24;;;;;;;31.83;21.45;;;;;;;;;;6299906;28;20044;-67
2023/11/22 08:58:26;;;;;;;21.85;16.60;;;;;;;;;;6266827;28;20147;-69
2023/11/22 09:01:29;;;;;;;22.08;15.90;;;;;;;;;;6284889;28;20063;-68
2023/11/22 09:04:31;;;;;;;24.05;15.30;;;;;;;;;;6298482;28;20190;-69
2023/11/22 09:07:37;;;;;;;26.33;17.50;;;;;;;;;;6296713;28;20098;-77
2023/11/22 09:10:41;;;;;;;25.33;17.25;;;;;;;;;;6254148;28;20070;-75
2023/11/22 09:13:43;;;;;;;23.00;15.65;;;;;;;;;;6308191;28;20067;-76
2023/11/22 09:16:50;;;;;;;22.20;15.25;;;;;;;;;;6288811;28;20130;-76
2023/11/22 09:19:54;;;;;;;25.30;15.50;;;;;;;;;;6249282;28;20064;-76
2023/11/22 09:22:56;;;;;;;22.50;16.45;;;;;;;;;;6291126;28;20751;-76
2023/11/22 09:26:00;;;;;;;23.80;15.88;;;;;;;;;;6307757;28;20063;-76
2023/11/22 09:29:03;;;;;;;25.73;15.45;;;;;;;;;;6268147;28;20450;-76
2023/11/22 09:32:05;;;;;;;20.60;13.82;;;;;;;;;;6290270;28;20144;-74
2023/11/22 09:35:09;;;;;;;23.13;15.65;;;;;;;;;;6291338;28;20438;-75
2023/11/22 09:38:11;;;;;;;26.27;16.67;;;;;;;;;;6272272;28;20055;-73
2023/11/22 09:41:16;;;;;;;29.85;22.00;;;;;;;;;;6210157;28;20141;-77
2023/11/22 09:44:18;;;;;;;33.08;22.90;;;;;;;;;;6250463;28;20051;-75
2023/11/22 09:47:22;;;;;;;28.40;18.25;;;;;;;;;;6291198;28;20056;-77
2023/11/22 09:50:50;;;;;;;28.27;18.92;;;;;;;;;;6293670;28;20052;-75
2023/11/22 09:54:04;;;;;;;22.33;14.30;;;;;;;;;;6298661;28;20105;-73
2023/11/22 09:57:10;;;;;;;25.65;15.48;;;;;;;;;;6310786;28;20050;-71
2023/11/22 10:00:14;;;;;;;21.67;15.38;;;;;;;;;;6286418;28;20052;-71
2023/11/22 10:03:18;;;;;;;22.58;14.25;;;;;;;;;;6290353;28;20151;-68
2023/11/22 10:06:20;;;;;;;26.83;16.92;;;;;;;;;;6311198;28;20043;-71
2023/11/22 10:09:24;;;;;;;29.02;15.50;;;;;;;;;;6307061;28;20783;-71
2023/11/22 10:12:29;;;;;;;20.92;14.23;;;;;;;;;;6308336;28;20059;-72
2023/11/22 10:15:31;;;;;;;25.17;17.30;;;;;;;;;;6310412;28;20071;-71
2023/11/22 10:18:34;;;;;;;27.75;18.15;;;;;;;;;;6241884;28;20058;-71
2023/11/22 10:21:39;;;;;;;25.63;16.20;;;;;;;;;;6249630;28;20050;-71
2023/11/22 10:24:43;;;;;;;24.98;15.80;;;;;;;;;;6313148;28;20051;-71
2023/11/22 10:27:51;;;;;;;26.35;17.88;;;;;;;;;;6318628;28;20048;-80
2023/11/22 10:30:55;;;;;;;27.17;16.55;;;;;;;;;;6307758;28;20086;-79
2023/11/22 10:33:57;;;;;;;28.98;19.58;;;;;;;;;;6290827;28;20603;-83
2023/11/22 10:37:03;;;;;;;22.98;15.02;;;;;;;;;;6277383;28;20049;-76
2023/11/22 10:40:10;;;;;;;22.40;14.65;;;;;;;;;;6302600;28;20048;-75
2023/11/22 10:43:12;;;;;;;21.40;15.95;;;;;;;;;;6293729;28;20044;-76
2023/11/22 10:46:16;;;;;;;25.95;18.00;;;;;;;;;;6269739;28;20070;-71
2023/11/22 10:49:21;;;;;;;23.80;15.70;;;;;;;;;;6263599;28;20057;-71
2023/11/22 10:52:26;;;;;;;22.77;15.40;;;;;;;;;;6282618;28;20088;-67
2023/11/22 10:55:32;;;;;;;19.73;13.75;;;;;;;;;;6305283;28;20110;-66
2023/11/22 10:58:35;;;;;;;24.23;15.75;;;;;;;;;;6273891;28;20146;-66
2023/11/22 11:01:45;;;;;;;22.25;15.02;;;;;;;;;;6311781;28;20056;-74
2023/11/22 11:04:55;;;;;;;24.20;14.45;;;;;;;;;;6291448;28;20090;-74
2023/11/22 11:08:10;;;;;;;21.80;13.43;;;;;;;;;;6294549;28;20060;-74
2023/11/22 11:11:14;;;;;;;22.58;15.13;;;;;;;;;;6289345;28;20049;-74
2023/11/22 11:14:17;;;;;;;22.88;16.23;;;;;;;;;;6262677;28;20129;-72
2023/11/22 11:17:19;;;;;;;30.20;19.55;;;;;;;;;;6303095;28;20514;-68
2023/11/22 11:20:23;;;;;;;23.73;15.32;;;;;;;;;;6252864;28;20054;-67
2023/11/22 11:23:27;;;;;;;26.83;16.42;;;;;;;;;;6268397;28;20059;-67
2023/11/22 11:26:32;;;;;;;24.40;17.02;;;;;;;;;;6269330;28;20040;-67
2023/11/22 11:29:36;;;;;;;23.95;16.30;;;;;;;;;;6272199;28;20055;-67
2023/11/22 11:32:41;;;;;;;24.92;17.42;;;;;;;;;;6314565;28;20161;-67
2023/11/22 11:35:48;;;;;;;26.95;17.40;;;;;;;;;;6318896;28;20100;-67
2023/11/22 11:38:58;;;;;;;24.70;15.82;;;;;;;;;;6318720;28;20048;-67
2023/11/22 11:42:10;;;;;;;24.30;18.40;;;;;;;;;;6267810;28;20052;-68
2023/11/22 11:45:19;;;;;;;26.58;17.38;;;;;;;;;;6312753;28;20055;-68
2023/11/22 11:48:24;;;;;;;46.20;24.20;;;;;;;;;;6299091;28;20044;-67
2023/11/22 11:51:28;;;;;;;24.92;14.60;;;;;;;;;;6279277;28;20098;-67
2023/11/22 11:54:30;;;;;;;24.15;15.65;;;;;;;;;;6309697;28;20225;-74
2023/11/22 11:57:32;;;;;;;20.92;14.75;;;;;;;;;;6269361;28;20061;-74
2023/11/22 12:00:40;;;;;;;24.55;15.40;;;;;;;;;;6259697;28;20063;-74
2023/11/22 12:03:43;;;;;;;23.15;13.75;;;;;;;;;;6248961;28;20397;-72
2023/11/22 12:06:46;;;;;;;23.05;15.73;;;;;;;;;;6293605;28;20137;-71
2023/11/22 12:09:48;;;;;;;24.45;14.48;;;;;;;;;;6294101;28;20040;-71
2023/11/22 12:12:50;;;;;;;21.60;15.68;;;;;;;;;;6311472;28;20052;-72
2023/11/22 12:15:55;;;;;;;38.72;25.52;;;;;;;;;;6311169;28;20052;-72
2023/11/22 12:18:58;;;;;;;22.67;15.15;;;;;;;;;;6292846;28;20442;-72
2023/11/22 12:22:00;;;;;;;22.98;14.18;;;;;;;;;;6288785;28;20044;-72
2023/11/22 12:25:03;;;;;;;25.70;16.02;;;;;;;;;;6289057;28;20634;-72
2023/11/22 12:28:05;;;;;;;27.60;16.17;;;;;;;;;;6310302;28;20059;-72
2023/11/22 12:31:12;;;;;;;23.20;16.67;;;;;;;;;;6308237;28;20071;-71
2023/11/22 12:34:15;;;;;;;26.65;18.73;;;;;;;;;;6308771;28;20054;-71
2023/11/22 12:37:21;;;;;;;23.23;15.40;;;;;;;;;;6308196;28;20067;-72
2023/11/22 12:40:23;;;;;;;24.70;17.35;;;;;;;;;;6259736;28;20075;-75
2023/11/22 12:43:28;;;;;;;23.58;16.20;;;;;;;;;;6284985;28;20546;-72
2023/11/22 12:46:56;;;;;;;22.80;18.33;;;;;;;;;;6211366;28;20478;-68
2023/11/22 12:50:00;;;;;;;23.80;17.25;;;;;;;;;;6289503;28;20162;-72
2023/11/22 12:53:10;;;;;;;42.17;22.13;;;;;;;;;;6306148;28;20126;-72
2023/11/22 12:56:12;;;;;;;24.58;15.48;;;;;;;;;;6267348;28;20048;-72
2023/11/22 12:59:14;;;;;;;22.40;13.98;;;;;;;;;;6291972;28;20048;-72
2023/11/22 13:02:17;;;;;;;29.00;17.30;;;;;;;;;;6310882;28;20055;-72
2023/11/22 13:05:19;;;;;;;25.15;14.85;;;;;;;;;;6309240;28;20101;-72
2023/11/22 13:08:22;;;;;;;21.98;14.05;;;;;;;;;;6311352;28;20052;-72
2023/11/22 13:11:24;;;;;;;20.70;13.45;;;;;;;;;;6282301;28;20165;-72
2023/11/22 13:14:31;;;;;;;21.55;12.98;;;;;;;;;;6283719;28;20044;-72
2023/11/22 13:17:34;;;;;;;20.25;13.35;;;;;;;;;;6301529;28;20149;-73
2023/11/22 13:20:38;;;;;;;24.20;16.45;;;;;;;;;;6306234;28;20056;-72
2023/11/22 13:23:40;;;;;;;28.15;17.98;;;;;;;;;;6303656;28;20048;-73
2023/11/22 13:26:43;;;;;;;22.73;16.63;;;;;;;;;;6309484;28;20048;-73
2023/11/22 13:29:45;;;;;;;23.90;16.20;;;;;;;;;;6305711;28;20044;-72
2023/11/22 13:32:47;;;;;;;22.67;15.95;;;;;;;;;;6296307;28;20051;-72
2023/11/22 13:35:49;;;;;;;28.42;19.73;;;;;;;;;;6304052;28;20201;-72
2023/11/22 13:38:52;;;;;;;25.23;16.75;;;;;;;;;;6307796;28;20056;-72
2023/11/22 13:41:54;;;;;;;22.90;16.65;;;;;;;;;;6280136;28;20127;-72
2023/11/22 13:44:56;;;;;;;25.33;17.52;;;;;;;;;;6314455;28;20048;-72
2023/11/22 13:48:03;;;;;;;26.38;15.85;;;;;;;;;;6274237;28;20048;-72
2023/11/22 13:51:07;;;;;;;25.02;16.90;;;;;;;;;;6269232;28;20469;-72
2023/11/22 13:54:14;;;;;;;27.55;16.67;;;;;;;;;;6281911;28;20051;-72
2023/11/22 13:57:16;;;;;;;26.23;18.38;;;;;;;;;;6293468;28;20059;-72
2023/11/22 14:00:22;;;;;;;30.77;17.92;;;;;;;;;;6311793;28;20075;-72
2023/11/22 14:03:24;;;;;;;33.65;18.85;;;;;;;;;;6314722;28;20205;-72
2023/11/22 14:06:26;;;;;;;32.45;16.90;;;;;;;;;;6307118;28;20048;-72
2023/11/22 14:09:29;;;;;;;26.15;16.98;;;;;;;;;;6269234;28;20061;-72
2023/11/22 14:12:31;;;;;;;24.30;14.07;;;;;;;;;;6300434;28;20048;-72
2023/11/22 14:15:35;;;;;;;26.42;15.02;;;;;;;;;;6236461;28;20668;-72
2023/11/22 14:18:37;;;;;;;29.83;17.13;;;;;;;;;;6305992;28;20549;-72
2023/11/22 14:21:39;;;;;;;27.90;17.00;;;;;;;;;;6316773;28;20050;-72
2023/11/22 14:24:41;;;;;;;22.58;14.85;;;;;;;;;;6308583;28;20089;-72
2023/11/22 14:27:45;;;;;;;21.85;14.40;;;;;;;;;;6313903;28;20040;-70
2023/11/22 14:30:49;;;;;;;20.23;12.27;;;;;;;;;;6319505;28;20122;-71
2023/11/22 14:33:51;;;;;;;18.33;12.43;;;;;;;;;;6284382;28;20841;-70
2023/11/22 14:36:54;;;;;;;18.35;14.52;;;;;;;;;;6322093;28;20055;-71
2023/11/22 14:39:57;;;;;;;24.23;15.38;;;;;;;;;;6320714;28;20070;-71
2023/11/22 14:43:00;;;;;;;18.30;11.98;;;;;;;;;;6319667;28;20783;-70
2023/11/22 14:46:02;;;;;;;18.65;10.70;;;;;;;;;;6307060;28;20048;-70
2023/11/22 14:49:05;;;;;;;18.02;12.18;;;;;;;;;;6309108;28;20486;-68
2023/11/22 14:52:09;;;;;;;29.80;20.08;;;;;;;;;;6304383;28;21143;-67
2023/11/22 14:55:12;;;;;;;26.17;14.80;;;;;;;;;;6312322;28;20473;-68
2023/11/22 14:58:14;;;;;;;24.55;15.95;;;;;;;;;;6315115;28;20055;-72
2023/11/22 15:01:16;;;;;;;25.67;16.75;;;;;;;;;;6317741;28;20051;-76
2023/11/22 15:04:19;;;;;;;34.72;24.45;;;;;;;;;;6312867;28;20067;-74
2023/11/22 15:07:21;;;;;;;29.85;17.67;;;;;;;;;;6317059;28;20079;-74
2023/11/22 15:10:25;;;;;;;30.45;19.77;;;;;;;;;;6323905;28;21013;-72
2023/11/22 15:13:27;;;;;;;59.22;31.90;;;;;;;;;;6321953;28;20055;-68
2023/11/22 15:16:31;;;;;;;85.10;38.25;;;;;;;;;;6309892;28;20055;-69
2023/11/22 15:19:37;;;;;;;123.05;53.97;;;;;;;;;;6258991;28;20569;-70
2023/11/22 15:22:40;;;;;;;78.88;43.53;;;;;;;;;;6306954;28;20048;-73
2023/11/22 15:25:42;;;;;;;55.65;30.25;;;;;;;;;;6313014;28;20052;-72
2023/11/22 15:28:46;;;;;;;48.83;31.20;;;;;;;;;;6306601;28;20052;-74
2023/11/22 15:31:48;;;;;;;50.85;28.27;;;;;;;;;;6311540;28;20056;-74
2023/11/22 15:34:50;;;;;;;22.48;12.30;;;;;;;;;;6246884;28;20050;-75
2023/11/22 15:37:52;;;;;;;9.32;6.13;;;;;;;;;;6278885;28;20048;-75
2023/11/22 15:40:55;;;;;;;10.45;7.25;;;;;;;;;;6294450;28;20139;-74
2023/11/22 15:44:08;;;;;;;14.93;9.07;;;;;;;;;;6292655;28;20597;-75
2023/11/22 15:47:10;;;;;;;13.65;8.13;;;;;;;;;;6312219;28;20044;-73
2023/11/22 15:50:16;;;;;;;15.40;8.18;;;;;;;;;;6258659;28;20190;-72
2023/11/22 15:53:18;;;;;;;12.18;9.30;;;;;;;;;;6312150;28;20059;-73
2023/11/22 15:56:20;;;;;;;12.20;8.43;;;;;;;;;;6311870;28;20138;-73
2023/11/22 15:59:23;;;;;;;14.02;7.90;;;;;;;;;;6303401;28;20612;-73
2023/11/22 16:02:25;;;;;;;13.40;9.65;;;;;;;;;;6312362;28;20071;-73
2023/11/22 16:05:28;;;;;;;19.70;13.38;;;;;;;;;;6305774;28;20048;-73
2023/11/22 16:08:32;;;;;;;21.70;13.68;;;;;;;;;;6299801;28;20044;-73
2023/11/22 16:11:36;;;;;;;20.48;13.25;;;;;;;;;;6291494;28;20081;-73
2023/11/22 16:14:38;;;;;;;32.75;21.50;;;;;;;;;;6280467;28;20056;-73
2023/11/22 16:17:41;;;;;;;36.28;22.85;;;;;;;;;;6289942;28;20059;-73
2023/11/22 16:20:43;;;;;;;65.68;34.58;;;;;;;;;;6305882;28;20048;-73
2023/11/22 16:23:46;;;;;;;63.83;39.65;;;;;;;;;;6308981;28;20059;-73
2023/11/22 16:26:47;;;;;;;42.83;28.02;;;;;;;;;;6305516;28;20048;-73
2023/11/22 16:29:50;;;;;;;59.47;37.25;;;;;;;;;;6263209;28;20059;-73
2023/11/22 16:32:52;;;;;;;73.95;41.63;;;;;;;;;;6279560;28;20474;-72
2023/11/22 16:35:55;;;;;;;50.33;31.10;;;;;;;;;;6189238;28;20063;-72
2023/11/22 16:38:57;;;;;;;34.28;22.90;;;;;;;;;;6266648;28;20050;-72
2023/11/22 16:42:00;;;;;;;36.17;22.02;;;;;;;;;;6285189;28;20509;-72
2023/11/22 16:45:03;;;;;;;42.38;28.08;;;;;;;;;;6259010;28;20516;-73
2023/11/22 16:48:05;;;;;;;34.33;20.77;;;;;;;;;;6307131;28;20582;-73
2023/11/22 16:51:08;;;;;;;28.45;18.15;;;;;;;;;;6311239;28;20125;-73
2023/11/22 16:54:10;;;;;;;26.42;14.35;;;;;;;;;;6221210;28;20058;-73
2023/11/22 16:57:17;;;;;;;21.95;14.68;;;;;;;;;;6273749;28;20101;-72
2023/11/22 17:00:20;;;;;;;21.80;13.70;;;;;;;;;;6308014;28;20052;-73
2023/11/22 17:03:26;;;;;;;20.00;14.40;;;;;;;;;;6308974;28;20723;-75
2023/11/22 17:06:28;;;;;;;19.33;13.32;;;;;;;;;;6264743;28;20187;-72
2023/11/22 17:09:30;;;;;;;18.65;12.77;;;;;;;;;;6297864;28;20537;-72
2023/11/22 17:12:34;;;;;;;25.48;13.63;;;;;;;;;;6308301;28;20048;-73
2023/11/22 17:16:00;;;;;;;23.27;13.65;;;;;;;;;;6283613;28;20440;-73
2023/11/22 17:19:02;;;;;;;24.15;14.57;;;;;;;;;;6305033;28;20800;-73
2023/11/22 17:22:04;;;;;;;25.02;14.23;;;;;;;;;;6307307;28;20135;-73
2023/11/22 17:25:13;;;;;;;24.83;17.42;;;;;;;;;;6289733;28;20064;-72
2023/11/22 17:28:15;;;;;;;47.13;26.83;;;;;;;;;;6288981;28;20044;-73
2023/11/22 17:31:17;;;;;;;74.18;42.42;;;;;;;;;;6307506;28;20052;-73
2023/11/22 17:34:20;;;;;;;54.67;32.78;;;;;;;;;;6274297;28;20427;-73
2023/11/22 17:37:22;;;;;;;29.65;18.40;;;;;;;;;;6308818;28;20595;-74
2023/11/22 17:40:25;;;;;;;33.53;20.45;;;;;;;;;;6261364;28;20085;-74
2023/11/22 17:43:27;;;;;;;31.55;21.23;;;;;;;;;;6275397;28;20048;-75
2023/11/22 17:46:31;;;;;;;31.60;19.67;;;;;;;;;;6305208;28;20454;-75
2023/11/22 17:49:34;;;;;;;28.08;19.00;;;;;;;;;;6302892;28;20048;-72
2023/11/22 17:52:36;;;;;;;27.92;18.70;;;;;;;;;;6309388;28;20040;-72
2023/11/22 17:55:38;;;;;;;34.63;23.35;;;;;;;;;;6295590;28;20087;-72